Time;durP1;ratioP1;P1;durP2;ratioP2;P2;SDS_P1;SDS_P2;PMS_P1;PMS_P2;Temp;Humidity;BMP_temperature;BMP_pressure;BME280_temperature;BME280_humidity;BME280_pressure;Samples;Min_cycle;Max_cycle;Signal;HPM_P1;HPM_P2
2022/12/26 00:01:49;;;;;;;129.20;32.47;;;9.00;95.80;;;;;;5093158;27;20409;-91
2022/12/26 00:04:15;;;;;;;129.07;32.10;;;9.00;96.10;;;;;;5111854;27;20448;-89
2022/12/26 00:06:41;;;;;;;115.53;30.02;;;9.00;95.80;;;;;;5093046;27;20958;-91
2022/12/26 00:09:07;;;;;;;111.63;30.63;;;9.10;95.80;;;;;;5094987;27;20398;-90
2022/12/26 00:11:33;;;;;;;124.20;29.93;;;9.00;95.80;;;;;;5110125;27;20526;-91
2022/12/26 00:14:04;;;;;;;142.43;31.90;;;9.00;95.90;;;;;;5094259;27;20750;-91
2022/12/26 00:16:30;;;;;;;110.97;30.15;;;9.00;95.80;;;;;;5093520;27;20497;-91
2022/12/26 00:18:55;;;;;;;114.55;30.77;;;9.00;95.90;;;;;;5093524;27;20981;-91
2022/12/26 00:21:24;;;;;;;112.57;31.98;;;9.00;95.90;;;;;;5111319;27;20402;-90
2022/12/26 00:23:50;;;;;;;119.00;31.50;;;9.00;95.90;;;;;;5109984;27;20395;-91
2022/12/26 00:26:18;;;;;;;121.03;33.57;;;9.00;95.90;;;;;;5111381;27;20746;-91
2022/12/26 00:28:44;;;;;;;117.05;32.83;;;9.00;95.80;;;;;;5092211;27;20781;-90
2022/12/26 00:31:13;;;;;;;109.38;32.50;;;9.00;95.80;;;;;;5094601;27;20487;-91
2022/12/26 00:33:39;;;;;;;130.23;33.75;;;9.00;95.80;;;;;;5092482;27;20442;-89
2022/12/26 00:36:11;;;;;;;116.97;32.73;;;9.00;95.90;;;;;;5093269;27;20462;-90
2022/12/26 00:38:38;;;;;;;147.80;35.90;;;9.00;95.90;;;;;;5093706;27;20399;-90
2022/12/26 00:41:05;;;;;;;143.05;35.03;;;9.00;95.90;;;;;;5109025;27;20481;-91
2022/12/26 00:43:32;;;;;;;127.13;33.33;;;9.50;96.10;;;;;;5110702;27;20398;-92
2022/12/26 00:45:59;;;;;;;125.75;34.35;;;9.00;95.90;;;;;;5092634;27;20754;-91
2022/12/26 00:48:25;;;;;;;136.13;35.63;;;9.00;95.90;;;;;;5111097;27;20776;-90
2022/12/26 00:50:51;;;;;;;128.23;34.97;;;9.00;95.90;;;;;;5092345;27;20466;-90
2022/12/26 00:53:16;;;;;;;130.03;34.43;;;9.00;95.90;;;;;;5093463;27;20989;-91
2022/12/26 00:55:42;;;;;;;136.13;34.50;;;9.00;95.90;;;;;;5092828;27;20422;-90
2022/12/26 00:58:08;;;;;;;146.63;35.85;;;9.00;95.90;;;;;;5092217;27;20445;-90
2022/12/26 01:00:34;;;;;;;146.80;36.45;;;9.10;95.90;;;;;;5093482;27;20889;-90
2022/12/26 01:03:00;;;;;;;135.18;35.08;;;9.00;95.90;;;;;;5108295;27;20403;-92
2022/12/26 01:05:26;;;;;;;134.02;34.60;;;9.10;95.90;;;;;;5110810;27;20421;-90
2022/12/26 01:07:51;;;;;;;121.50;33.28;;;9.00;95.80;;;;;;5091520;27;20413;-90
2022/12/26 01:10:17;;;;;;;128.40;33.70;;;9.00;95.80;;;;;;5110929;27;20398;-90
2022/12/26 01:12:43;;;;;;;124.17;34.17;;;9.00;95.90;;;;;;5109062;27;20500;-90
2022/12/26 01:15:09;;;;;;;121.47;32.90;;;9.00;95.90;;;;;;5109558;27;20769;-90
2022/12/26 01:17:35;;;;;;;142.63;33.85;;;9.00;95.90;;;;;;5093188;27;20399;-89
2022/12/26 01:20:01;;;;;;;138.32;34.40;;;9.00;95.90;;;;;;5108754;27;20434;-90
2022/12/26 01:22:27;;;;;;;126.03;33.60;;;9.00;96.00;;;;;;5092763;27;20452;-91
2022/12/26 01:24:53;;;;;;;122.43;33.35;;;9.00;96.00;;;;;;5108505;27;20418;-90
2022/12/26 01:27:19;;;;;;;128.90;33.70;;;9.00;96.00;;;;;;5093188;27;20444;-90
2022/12/26 01:29:44;;;;;;;132.70;33.87;;;9.00;96.00;;;;;;5091586;27;20788;-90
2022/12/26 01:32:10;;;;;;;147.98;35.85;;;9.00;96.00;;;;;;5109709;27;20403;-91
2022/12/26 01:34:36;;;;;;;140.47;34.50;;;9.00;96.00;;;;;;5109405;27;20421;-91
2022/12/26 01:37:01;;;;;;;149.20;35.25;;;9.00;96.10;;;;;;5108975;27;20921;-92
2022/12/26 01:39:27;;;;;;;132.65;33.38;;;9.00;96.10;;;;;;5092919;27;20437;-90
2022/12/26 01:41:53;;;;;;;150.73;34.13;;;9.00;96.10;;;;;;5108155;27;20418;-90
2022/12/26 01:44:56;;;;;;;135.82;33.22;;;9.00;96.10;;;;;;5093276;27;20399;-91
2022/12/26 01:47:24;;;;;;;133.70;33.60;;;9.00;96.20;;;;;;5109174;27;20414;-90
2022/12/26 01:49:52;;;;;;;107.50;30.70;;;9.00;96.20;;;;;;5092239;27;20771;-91
2022/12/26 01:52:46;;;;;;;120.30;31.25;;;9.00;96.20;;;;;;5109628;27;20983;-91
2022/12/26 01:55:15;;;;;;;127.40;31.65;;;9.00;96.20;;;;;;5087178;28;20398;-91
2022/12/26 01:57:44;;;;;;;111.77;30.80;;;9.00;96.20;;;;;;5093038;28;20412;-91
2022/12/26 02:00:11;;;;;;;108.13;30.08;;;9.00;96.20;;;;;;5092220;27;20893;-92
2022/12/26 02:05:33;;;;;;;115.20;31.23;;;9.00;96.20;;;;;;5068852;27;20413;-90
2022/12/26 02:08:14;;;;;;;104.95;30.70;;;9.00;96.20;;;;;;5091227;28;20450;-91
2022/12/26 02:10:50;;;;;;;96.87;28.20;;;9.00;96.30;;;;;;5092387;28;20844;-91
2022/12/26 02:13:18;;;;;;;84.47;26.02;;;9.10;96.30;;;;;;5091655;28;20612;-91
2022/12/26 02:15:44;;;;;;;105.30;29.27;;;9.00;96.30;;;;;;5110649;27;20449;-92
2022/12/26 02:18:09;;;;;;;83.82;26.40;;;9.00;96.30;;;;;;5096434;27;20406;-90
2022/12/26 02:20:44;;;;;;;89.88;27.05;;;9.20;96.40;;;;;;5095740;27;20911;-91
2022/12/26 02:23:30;;;;;;;91.47;27.48;;;9.00;96.30;;;;;;5097440;27;20914;-91
2022/12/26 02:26:04;;;;;;;90.95;27.52;;;9.10;96.40;;;;;;5112859;27;20821;-91
2022/12/26 02:28:54;;;;;;;72.13;24.58;;;9.00;96.40;;;;;;5096689;27;20754;-90
2022/12/26 02:31:46;;;;;;;71.65;24.77;;;9.00;96.40;;;;;;5113793;27;20407;-91
2022/12/26 02:34:33;;;;;;;85.28;26.75;;;9.20;96.40;;;;;;5112111;27;20485;-92
2022/12/26 02:37:11;;;;;;;80.30;27.23;;;9.00;96.40;;;;;;5096527;27;20933;-92
2022/12/26 02:39:59;;;;;;;77.25;27.20;;;9.00;96.40;;;;;;5095832;27;20493;-88
2022/12/26 02:42:34;;;;;;;86.20;30.33;;;9.00;96.50;;;;;;5095459;27;20462;-92
2022/12/26 02:48:39;;;;;;;103.93;33.35;;;9.10;96.60;;;;;;5112464;27;20889;-88
2022/12/26 03:14:16;;;;;;;128.07;46.67;;;9.20;96.50;;;;;;5111781;27;20490;-91
2022/12/26 03:19:31;;;;;;;98.97;43.08;;;9.20;96.50;;;;;;5112662;27;20410;-91
2022/12/26 03:22:00;;;;;;;101.70;43.05;;;9.30;96.70;;;;;;5093937;27;20413;-91
2022/12/26 03:26:38;;;;;;;102.93;45.35;;;9.30;96.40;;;;;;5112918;27;20399;-91
2022/12/26 03:27:12;;;;;;;114.82;47.25;;;9.30;96.40;;;;;;5111327;27;20405;-91
2022/12/26 03:32:22;;;;;;;108.45;45.63;;;9.30;96.40;;;;;;5112110;27;21069;-90
2022/12/26 03:34:48;;;;;;;110.17;44.80;;;9.30;96.30;;;;;;5110401;27;20419;-90
2022/12/26 03:37:39;;;;;;;110.65;44.53;;;9.50;96.40;;;;;;5095626;27;20418;-91
2022/12/26 04:44:37;;;;;;;58.00;32.33;;;9.30;95.80;;;;;;5109100;27;20403;-90
2022/12/26 04:47:02;;;;;;;57.72;32.50;;;9.30;95.80;;;;;;5092771;27;20764;-90
2022/12/26 04:52:13;;;;;;;44.60;28.92;;;9.30;95.80;;;;;;5108761;27;20399;-89
2022/12/26 04:54:40;;;;;;;55.80;33.47;;;9.30;95.70;;;;;;5110273;27;20413;-90
2022/12/26 04:57:06;;;;;;;46.42;29.58;;;9.30;95.70;;;;;;5092449;27;20570;-90
2022/12/26 04:59:32;;;;;;;47.92;30.85;;;9.30;95.70;;;;;;5110230;27;20790;-91
2022/12/26 05:10:23;;;;;;;44.35;29.75;;;9.40;95.50;;;;;;5107580;27;20486;-88
2022/12/26 05:12:49;;;;;;;47.33;29.93;;;9.30;95.50;;;;;;5092418;27;20776;-88
2022/12/26 05:15:14;;;;;;;47.30;30.37;;;9.20;95.70;;;;;;5090683;27;20493;-89
2022/12/26 05:29:03;;;;;;;43.65;30.73;;;9.20;95.20;;;;;;5108112;27;20411;-88
2022/12/26 05:31:29;;;;;;;44.77;30.73;;;9.10;95.30;;;;;;5107325;27;20535;-88
2022/12/26 05:34:09;;;;;;;42.40;29.93;;;9.10;95.30;;;;;;5108500;27;20399;-87
2022/12/26 05:36:48;;;;;;;42.60;30.58;;;9.10;95.20;;;;;;5090320;27;20430;-88
2022/12/26 05:39:14;;;;;;;44.38;31.35;;;9.10;95.20;;;;;;5090049;27;20430;-89
2022/12/26 05:41:40;;;;;;;51.40;33.42;;;9.30;95.30;;;;;;5095655;27;20398;-89
2022/12/26 05:44:06;;;;;;;49.92;33.83;;;9.10;95.30;;;;;;5089775;27;20544;-89
2022/12/26 05:46:33;;;;;;;47.67;33.03;;;9.10;95.40;;;;;;5108304;27;20400;-89
2022/12/26 05:48:59;;;;;;;47.90;33.42;;;9.10;95.40;;;;;;5106048;27;20399;-89
2022/12/26 05:51:24;;;;;;;42.88;31.20;;;9.10;95.40;;;;;;5090762;27;20869;-88
2022/12/26 05:53:51;;;;;;;40.65;30.35;;;9.10;95.30;;;;;;5106772;27;20943;-86
2022/12/26 05:56:17;;;;;;;42.65;30.45;;;9.10;95.20;;;;;;5107613;27;20433;-89
2022/12/26 05:58:44;;;;;;;42.42;30.95;;;9.10;95.20;;;;;;5091417;28;20424;-87
2022/12/26 06:01:18;;;;;;;43.70;31.52;;;9.10;95.20;;;;;;5107034;28;20437;-90
2022/12/26 06:03:49;;;;;;;38.80;28.83;;;9.10;95.20;;;;;;5091984;27;20803;-89
2022/12/26 06:06:15;;;;;;;40.10;28.83;;;9.10;95.10;;;;;;5092297;27;20417;-86
2022/12/26 06:08:41;;;;;;;41.47;29.73;;;9.10;95.20;;;;;;5101423;27;20391;-90
2022/12/26 06:11:12;;;;;;;38.40;28.50;;;9.20;95.20;;;;;;5094349;28;20395;-90
2022/12/26 06:13:38;;;;;;;35.92;27.00;;;9.20;95.10;;;;;;5097207;28;20407;-90
2022/12/26 06:16:10;;;;;;;34.93;26.83;;;9.20;95.30;;;;;;5110178;27;20429;-87
2022/12/26 06:18:36;;;;;;;30.13;25.15;;;9.20;95.10;;;;;;5095331;28;20896;-89
2022/12/26 06:21:10;;;;;;;31.10;25.30;;;9.20;95.10;;;;;;5091064;28;20444;-89
2022/12/26 06:23:36;;;;;;;29.42;24.35;;;9.20;95.00;;;;;;5106535;28;20418;-89
2022/12/26 06:26:03;;;;;;;30.48;24.27;;;9.20;95.00;;;;;;5108771;27;20456;-87
2022/12/26 06:28:29;;;;;;;31.58;25.20;;;9.30;95.00;;;;;;5126810;27;20771;-87
2022/12/26 06:31:02;;;;;;;27.33;22.13;;;9.30;95.00;;;;;;5128668;27;20499;-88
2022/12/26 06:33:27;;;;;;;27.30;22.70;;;9.30;94.90;;;;;;5110863;27;20746;-88
2022/12/26 06:35:53;;;;;;;27.97;21.63;;;9.30;94.90;;;;;;5110472;27;20898;-88
2022/12/26 06:38:18;;;;;;;27.95;22.73;;;9.30;94.80;;;;;;5111094;27;20415;-89
2022/12/26 06:40:44;;;;;;;28.60;22.17;;;9.30;94.80;;;;;;5126841;27;20393;-89
2022/12/26 06:43:10;;;;;;;27.92;22.52;;;9.30;94.80;;;;;;5128023;27;20415;-88
2022/12/26 06:45:35;;;;;;;29.50;22.67;;;9.30;94.70;;;;;;5126566;27;20405;-88
2022/12/26 06:48:01;;;;;;;25.47;21.50;;;9.30;94.80;;;;;;5128426;27;20402;-89
2022/12/26 06:50:27;;;;;;;23.65;20.35;;;9.30;94.70;;;;;;5127912;27;20553;-89
2022/12/26 06:52:53;;;;;;;26.10;22.10;;;9.50;94.60;;;;;;5126862;27;20416;-88
2022/12/26 06:55:18;;;;;;;29.57;23.00;;;9.40;94.60;;;;;;5110666;27;20393;-88
2022/12/26 06:57:44;;;;;;;27.43;21.70;;;9.50;94.60;;;;;;5126896;27;20457;-89
2022/12/26 07:00:11;;;;;;;23.65;20.00;;;9.30;94.60;;;;;;5127791;27;20413;-89
2022/12/26 07:02:36;;;;;;;21.83;18.85;;;9.30;94.60;;;;;;5112603;27;20436;-89
2022/12/26 07:05:02;;;;;;;23.63;19.83;;;9.30;94.50;;;;;;5130081;27;20428;-87
2022/12/26 07:07:28;;;;;;;22.38;17.88;;;9.30;94.60;;;;;;5121008;27;20762;-91
2022/12/26 07:09:53;;;;;;;19.90;17.08;;;9.20;94.30;;;;;;5100301;27;20498;-90
2022/12/26 07:12:20;;;;;;;22.10;18.10;;;9.20;94.40;;;;;;5103168;27;20477;-88
2022/12/26 07:14:46;;;;;;;20.60;16.85;;;9.20;94.30;;;;;;5113860;27;20922;-88
2022/12/26 07:17:12;;;;;;;22.10;17.15;;;9.20;94.20;;;;;;5113982;27;20524;-87
2022/12/26 07:19:38;;;;;;;20.67;16.30;;;9.20;94.30;;;;;;5130731;27;20804;-88
2022/12/26 07:22:03;;;;;;;23.52;16.33;;;9.20;94.30;;;;;;5131328;27;20427;-88
2022/12/26 07:24:29;;;;;;;18.30;14.60;;;9.10;94.30;;;;;;5130170;27;20400;-89
2022/12/26 07:26:55;;;;;;;15.95;13.55;;;9.10;94.20;;;;;;5132096;27;20895;-87
2022/12/26 07:29:21;;;;;;;17.00;13.00;;;9.00;94.20;;;;;;5113112;27;20420;-87
2022/12/26 07:31:47;;;;;;;15.63;13.10;;;9.00;94.30;;;;;;5131174;27;20828;-88
2022/12/26 07:34:13;;;;;;;16.15;12.50;;;8.90;94.30;;;;;;5113616;27;20798;-89
2022/12/26 07:36:40;;;;;;;16.70;10.93;;;8.90;94.30;;;;;;5113351;27;20483;-89
2022/12/26 07:39:05;;;;;;;14.53;10.93;;;8.80;94.60;;;;;;5102527;27;20888;-88
2022/12/26 07:44:15;;;;;;;14.43;10.65;;;8.80;94.40;;;;;;5110988;27;20410;-88
2022/12/26 07:46:41;;;;;;;14.57;10.27;;;8.80;94.40;;;;;;5092847;27;20403;-88
2022/12/26 07:49:09;;;;;;;14.90;10.68;;;8.80;94.40;;;;;;5092919;27;20399;-87
2022/12/26 07:51:35;;;;;;;13.15;9.73;;;8.70;94.40;;;;;;5110400;27;20407;-88
2022/12/26 07:54:01;;;;;;;14.60;10.75;;;8.80;94.40;;;;;;5092042;27;20403;-88
2022/12/26 07:56:26;;;;;;;14.87;10.70;;;8.80;94.50;;;;;;5092775;27;20467;-88
2022/12/26 07:58:52;;;;;;;14.33;9.90;;;8.80;94.50;;;;;;5109122;27;20924;-90
2022/12/26 08:01:18;;;;;;;15.02;9.90;;;8.90;94.50;;;;;;5093391;27;20989;-90
2022/12/26 08:03:43;;;;;;;13.43;10.30;;;8.80;94.40;;;;;;5109023;27;20476;-89
2022/12/26 08:06:10;;;;;;;12.47;8.70;;;8.90;94.40;;;;;;5110222;27;20407;-92
2022/12/26 08:08:36;;;;;;;12.85;9.13;;;8.90;94.40;;;;;;5109432;27;20421;-89
2022/12/26 08:11:04;;;;;;;13.55;9.43;;;9.10;94.40;;;;;;5108652;27;20407;-88
2022/12/26 08:13:30;;;;;;;13.18;8.95;;;8.90;94.40;;;;;;5109758;27;20399;-88
2022/12/26 08:15:57;;;;;;;11.50;8.00;;;9.00;94.40;;;;;;5091244;27;20446;-89
2022/12/26 08:18:23;;;;;;;13.27;8.13;;;9.00;94.30;;;;;;5092168;27;20528;-89
2022/12/26 08:20:49;;;;;;;13.50;7.80;;;9.10;94.40;;;;;;5090396;27;20897;-89
2022/12/26 08:23:16;;;;;;;12.10;7.80;;;9.10;94.40;;;;;;5110047;27;20419;-87
2022/12/26 08:25:41;;;;;;;12.33;7.40;;;8.90;94.40;;;;;;5117460;27;20434;-88
2022/12/26 08:28:07;;;;;;;10.43;7.43;;;9.10;94.50;;;;;;5103744;27;20405;-89
2022/12/26 08:30:33;;;;;;;12.70;7.95;;;9.20;94.40;;;;;;5097985;27;20418;-89
2022/12/26 08:32:58;;;;;;;12.95;7.45;;;9.20;94.40;;;;;;5092581;28;20397;-88
2022/12/26 08:35:24;;;;;;;14.27;7.73;;;9.20;94.50;;;;;;5098034;27;20949;-89
2022/12/26 08:37:50;;;;;;;13.60;8.30;;;9.20;94.50;;;;;;5116391;27;20407;-88
2022/12/26 08:40:16;;;;;;;12.73;7.78;;;9.30;94.50;;;;;;5100945;27;20775;-89
2022/12/26 08:42:41;;;;;;;14.10;8.68;;;9.20;94.50;;;;;;5110999;27;20397;-88
2022/12/26 08:45:07;;;;;;;13.80;9.10;;;9.20;94.70;;;;;;5118352;27;20464;-88
2022/12/26 08:47:33;;;;;;;11.45;7.65;;;9.10;94.80;;;;;;5100617;27;20879;-89
2022/12/26 08:49:58;;;;;;;18.08;10.18;;;9.10;94.90;;;;;;5096014;28;21076;-89
2022/12/26 08:52:24;;;;;;;17.10;10.40;;;9.20;95.10;;;;;;5098984;27;20402;-87
2022/12/26 08:54:50;;;;;;;13.35;9.80;;;9.10;95.10;;;;;;5118807;27;21931;-90
2022/12/26 08:57:15;;;;;;;15.90;10.77;;;9.10;95.00;;;;;;5096873;28;20946;-91
2022/12/26 08:59:41;;;;;;;15.10;10.73;;;9.20;95.10;;;;;;5092220;27;20406;-88
2022/12/26 09:02:10;;;;;;;17.67;12.65;;;9.20;95.10;;;;;;5115963;27;20410;-88
2022/12/26 09:04:36;;;;;;;14.73;10.13;;;9.20;95.30;;;;;;5117312;27;20485;-88
2022/12/26 09:07:02;;;;;;;13.55;9.50;;;9.20;95.20;;;;;;5099434;27;20489;-87
2022/12/26 09:09:28;;;;;;;14.15;8.57;;;9.20;95.20;;;;;;5093492;28;20419;-89
2022/12/26 09:11:53;;;;;;;15.10;10.00;;;9.10;95.20;;;;;;5121215;27;20815;-87
2022/12/26 09:14:19;;;;;;;14.70;9.80;;;9.20;95.50;;;;;;5100639;28;20412;-88
2022/12/26 09:16:45;;;;;;;12.80;8.50;;;9.20;95.30;;;;;;5103712;28;20427;-90
2022/12/26 09:19:13;;;;;;;14.93;10.32;;;9.10;95.20;;;;;;5095202;28;20408;-88
2022/12/26 09:21:39;;;;;;;11.77;8.70;;;9.30;95.30;;;;;;5107236;27;20406;-88
2022/12/26 09:24:09;;;;;;;11.38;7.00;;;9.10;95.10;;;;;;5093908;27;20398;-87
2022/12/26 09:26:35;;;;;;;13.88;7.30;;;9.10;94.80;;;;;;5116197;27;20402;-88
2022/12/26 09:29:01;;;;;;;13.00;3.00;;;9.00;94.90;;;;;;5112774;27;20408;-87
2022/12/26 09:31:30;;;;;;;13.63;2.30;;;9.00;94.20;;;;;;5105981;27;20900;-89
2022/12/26 09:33:56;;;;;;;14.80;2.45;;;8.80;92.90;;;;;;5107205;27;20917;-89
2022/12/26 09:36:27;;;;;;;18.33;2.70;;;8.60;92.30;;;;;;5109145;27;20433;-87
2022/12/26 09:38:55;;;;;;;14.10;1.90;;;8.50;92.40;;;;;;5107553;27;20446;-88
2022/12/26 09:41:24;;;;;;;16.80;2.30;;;8.40;92.30;;;;;;5125953;27;20410;-88
2022/12/26 09:44:08;;;;;;;13.10;2.00;;;8.40;92.40;;;;;;5125219;27;20472;-87
2022/12/26 09:46:57;;;;;;;14.32;1.83;;;8.30;91.90;;;;;;5107676;27;20410;-90
2022/12/26 09:49:53;;;;;;;15.95;1.70;;;8.30;92.00;;;;;;5108749;27;20403;-87
2022/12/26 09:52:23;;;;;;;14.45;2.40;;;8.10;92.10;;;;;;5108161;27;20438;-90
2022/12/26 09:54:59;;;;;;;13.57;2.20;;;8.10;91.90;;;;;;5125529;27;20394;-89
2022/12/26 09:57:41;;;;;;;11.75;1.50;;;8.10;92.00;;;;;;5099578;28;20958;-87
2022/12/26 10:00:15;;;;;;;11.60;1.27;;;8.10;91.90;;;;;;5087412;28;20821;-89
2022/12/26 10:02:41;;;;;;;13.48;1.70;;;8.10;91.80;;;;;;5088528;28;20400;-89
2022/12/26 10:05:11;;;;;;;15.43;1.50;;;8.00;91.90;;;;;;5096831;28;20487;-89
2022/12/26 10:07:50;;;;;;;16.60;1.63;;;7.90;92.00;;;;;;5104361;28;20404;-88
2022/12/26 10:10:44;;;;;;;10.90;1.67;;;8.00;92.20;;;;;;5105127;28;20990;-89
2022/12/26 10:13:21;;;;;;;15.25;1.50;;;8.00;92.50;;;;;;5103723;28;20412;-88
2022/12/26 10:16:04;;;;;;;12.05;1.17;;;8.00;92.60;;;;;;5088528;28;20424;-89
2022/12/26 10:18:51;;;;;;;12.90;1.90;;;8.00;92.80;;;;;;5087627;28;20412;-89
2022/12/26 10:21:35;;;;;;;13.95;1.42;;;8.00;93.10;;;;;;5087274;28;20503;-88
2022/12/26 10:24:10;;;;;;;12.35;1.70;;;8.00;93.70;;;;;;5105082;28;20473;-89
2022/12/26 10:26:40;;;;;;;12.25;1.70;;;8.00;94.00;;;;;;5103914;28;20434;-90
2022/12/26 10:29:09;;;;;;;12.93;1.10;;;7.90;94.20;;;;;;5103929;28;20416;-89
2022/12/26 10:31:45;;;;;;;13.50;1.05;;;7.90;94.30;;;;;;5104051;28;20557;-89
2022/12/26 10:34:25;;;;;;;7.40;0.68;;;8.00;94.30;;;;;;5103119;28;20493;-92
2022/12/26 10:36:57;;;;;;;8.40;0.75;;;7.80;93.80;;;;;;5107990;28;20837;-92
2022/12/26 10:39:32;;;;;;;9.35;0.77;;;7.70;93.20;;;;;;5090683;28;20405;-87
2022/12/26 10:42:07;;;;;;;9.80;1.00;;;7.60;92.60;;;;;;5109464;28;20418;-92
2022/12/26 10:44:33;;;;;;;8.70;0.80;;;7.60;92.60;;;;;;5109963;28;20423;-91
2022/12/26 10:47:23;;;;;;;14.47;1.10;;;7.60;92.60;;;;;;5108539;28;20396;-90
2022/12/26 10:49:49;;;;;;;9.83;0.80;;;7.50;92.60;;;;;;5092736;28;20499;-92
2022/12/26 10:52:17;;;;;;;7.97;0.90;;;7.50;92.60;;;;;;5124913;27;20565;-89
2022/12/26 10:54:48;;;;;;;10.43;1.17;;;7.60;92.40;;;;;;5109070;28;20483;-92
2022/12/26 10:57:14;;;;;;;10.70;0.90;;;7.60;92.00;;;;;;5108720;28;20458;-90
2022/12/26 10:59:42;;;;;;;11.82;1.40;;;7.80;92.10;;;;;;5091813;28;20759;-91
2022/12/26 11:02:25;;;;;;;9.52;0.80;;;7.60;91.70;;;;;;5109379;28;20495;-92
2022/12/26 11:05:05;;;;;;;11.07;0.70;;;7.60;91.50;;;;;;5107964;28;20466;-90
2022/12/26 11:07:37;;;;;;;8.98;0.80;;;7.60;91.30;;;;;;5109606;28;20940;-89
2022/12/26 11:10:05;;;;;;;7.60;0.80;;;7.70;91.10;;;;;;5085931;28;20448;-89
2022/12/26 11:12:40;;;;;;;10.35;0.90;;;7.70;91.20;;;;;;5071183;28;20428;-90
2022/12/26 11:15:33;;;;;;;8.70;0.82;;;7.60;91.30;;;;;;5072176;28;20413;-92
2022/12/26 11:18:26;;;;;;;8.77;0.75;;;7.70;91.40;;;;;;5069892;28;20544;-89
2022/12/26 11:20:52;;;;;;;11.02;0.90;;;7.70;90.80;;;;;;5071303;28;20425;-93
2022/12/26 11:23:23;;;;;;;9.40;0.83;;;7.70;90.70;;;;;;5087819;28;20410;-93
2022/12/26 11:25:51;;;;;;;9.53;0.90;;;7.70;91.00;;;;;;5104958;28;20425;-91
2022/12/26 11:28:30;;;;;;;8.10;0.70;;;7.60;90.60;;;;;;5088536;28;20512;-89
2022/12/26 11:30:56;;;;;;;11.13;0.90;;;7.70;90.80;;;;;;5096021;28;20429;-90
2022/12/26 11:33:29;;;;;;;11.35;1.00;;;7.60;90.00;;;;;;5110856;27;20410;-89
2022/12/26 11:36:02;;;;;;;10.57;0.82;;;7.60;89.20;;;;;;5110781;27;20422;-91
2022/12/26 11:38:35;;;;;;;12.23;1.20;;;7.60;88.30;;;;;;5106101;27;20407;-91
2022/12/26 11:41:31;;;;;;;11.07;1.10;;;7.80;89.50;;;;;;5116620;27;20402;-90
2022/12/26 11:44:13;;;;;;;11.00;1.15;;;7.70;88.70;;;;;;5089951;28;20427;-90
2022/12/26 11:46:40;;;;;;;11.82;0.93;;;7.70;87.00;;;;;;5117147;27;20414;-90
2022/12/26 11:49:19;;;;;;;11.95;1.10;;;7.70;87.10;;;;;;5089137;28;20450;-90
2022/12/26 11:51:47;;;;;;;10.13;1.30;;;7.70;85.20;;;;;;5090330;28;20411;-92
2022/12/26 11:54:22;;;;;;;12.50;1.30;;;7.70;85.80;;;;;;5102747;27;20404;-93
2022/12/26 11:56:58;;;;;;;11.63;1.55;;;7.70;84.40;;;;;;5110152;27;21207;-91
2022/12/26 11:59:24;;;;;;;11.65;1.27;;;7.70;84.10;;;;;;5112224;27;20479;-93
2022/12/26 12:02:15;;;;;;;12.70;1.17;;;7.70;84.20;;;;;;5103114;28;20408;-89
2022/12/26 12:04:41;;;;;;;12.00;1.47;;;7.80;84.20;;;;;;5107561;28;20767;-92
2022/12/26 12:07:35;;;;;;;9.80;1.20;;;7.80;82.70;;;;;;5089953;28;20401;-92
2022/12/26 12:10:21;;;;;;;12.98;1.40;;;7.70;78.70;;;;;;5090583;28;20469;-90
2022/12/26 12:12:58;;;;;;;10.00;1.00;;;7.80;78.40;;;;;;5110371;27;20847;-94
2022/12/26 12:15:36;;;;;;;11.70;1.35;;;7.70;79.40;;;;;;5103719;28;20396;-92
2022/12/26 12:18:21;;;;;;;10.93;1.38;;;7.90;77.00;;;;;;5094271;27;20411;-90
2022/12/26 12:20:55;;;;;;;13.93;1.63;;;8.00;77.20;;;;;;5112985;27;20492;-93
2022/12/26 12:23:39;;;;;;;11.88;1.08;;;7.90;79.00;;;;;;5089615;28;20903;-91
2022/12/26 12:26:25;;;;;;;11.38;1.30;;;7.90;79.50;;;;;;5090396;27;20400;-90
2022/12/26 12:29:00;;;;;;;9.40;1.25;;;8.00;78.60;;;;;;5109419;27;20422;-91
2022/12/26 12:31:37;;;;;;;12.48;1.20;;;8.10;77.30;;;;;;5126937;27;20827;-91
2022/12/26 12:34:29;;;;;;;9.73;0.80;;;8.00;76.50;;;;;;5111365;27;20429;-92
2022/12/26 12:37:18;;;;;;;10.88;1.02;;;8.10;76.60;;;;;;5110469;27;20410;-92
2022/12/26 12:40:25;;;;;;;10.35;1.20;;;8.10;76.00;;;;;;5110198;27;20820;-89
2022/12/26 12:43:02;;;;;;;12.32;1.40;;;8.10;76.80;;;;;;5110994;27;20414;-88
2022/12/26 12:45:40;;;;;;;13.85;1.25;;;7.90;77.00;;;;;;5109889;27;20407;-88
2022/12/26 12:48:20;;;;;;;14.80;1.52;;;7.90;78.90;;;;;;5109640;27;21075;-90
2022/12/26 12:51:16;;;;;;;15.00;1.88;;;7.90;77.60;;;;;;5109486;27;20455;-89
2022/12/26 12:53:44;;;;;;;15.07;1.65;;;7.90;78.80;;;;;;5126155;27;20470;-87
2022/12/26 12:56:47;;;;;;;13.35;1.50;;;7.90;78.90;;;;;;5126913;27;20475;-87
2022/12/26 12:59:52;;;;;;;10.00;1.13;;;8.00;80.60;;;;;;5126637;27;20417;-88
2022/12/26 13:02:34;;;;;;;12.73;1.77;;;8.00;80.40;;;;;;5108378;27;20444;-89
2022/12/26 13:05:34;;;;;;;9.57;1.25;;;8.00;79.50;;;;;;5127372;27;20493;-90
2022/12/26 13:08:35;;;;;;;11.27;1.02;;;7.90;78.00;;;;;;5127802;27;21085;-90
2022/12/26 13:11:26;;;;;;;12.25;1.27;;;7.90;76.00;;;;;;5126375;27;20410;-90
2022/12/26 13:14:15;;;;;;;13.70;1.08;;;8.00;76.20;;;;;;5109719;27;20437;-88
2022/12/26 13:16:45;;;;;;;10.75;1.08;;;8.00;74.90;;;;;;5126496;27;20469;-89
2022/12/26 13:19:39;;;;;;;7.93;0.90;;;7.90;76.20;;;;;;5109520;27;20799;-89
2022/12/26 13:22:15;;;;;;;11.43;1.08;;;7.80;76.10;;;;;;5109405;27;20773;-89
2022/12/26 13:24:45;;;;;;;10.88;0.88;;;7.80;78.40;;;;;;5126198;27;20948;-86
2022/12/26 13:27:23;;;;;;;9.50;1.00;;;7.70;76.80;;;;;;5106349;27;20402;-89
2022/12/26 13:29:48;;;;;;;10.30;0.85;;;7.70;77.70;;;;;;5110968;27;20495;-89
2022/12/26 13:32:27;;;;;;;9.27;1.10;;;7.70;78.60;;;;;;5106313;27;20496;-87
2022/12/26 13:34:58;;;;;;;13.23;1.10;;;7.60;79.80;;;;;;5099218;27;20470;-87
2022/12/26 13:37:38;;;;;;;10.97;1.13;;;7.50;77.80;;;;;;5105952;27;21298;-87
2022/12/26 13:40:10;;;;;;;11.27;1.15;;;7.50;80.10;;;;;;5104337;28;20846;-90
2022/12/26 13:45:36;;;;;;;10.05;1.33;;;7.30;81.30;;;;;;5105380;28;20408;-89
2022/12/26 13:48:11;;;;;;;13.47;1.80;;;7.20;81.10;;;;;;5088690;28;20405;-89
2022/12/26 13:50:47;;;;;;;13.00;0.90;;;7.10;82.10;;;;;;5087361;28;20480;-88
2022/12/26 13:53:25;;;;;;;13.98;1.60;;;7.10;82.90;;;;;;5104677;28;20405;-90
2022/12/26 13:55:58;;;;;;;16.00;1.30;;;7.10;84.00;;;;;;5088542;28;20794;-87
2022/12/26 13:58:41;;;;;;;15.55;1.85;;;7.20;83.10;;;;;;5086677;28;20405;-87
2022/12/26 14:01:33;;;;;;;11.18;1.10;;;7.10;83.70;;;;;;5105265;28;20966;-87
2022/12/26 14:04:24;;;;;;;17.30;2.20;;;7.10;82.70;;;;;;5088028;28;20409;-87
2022/12/26 14:07:20;;;;;;;12.30;1.33;;;7.00;83.60;;;;;;5087428;28;20513;-90
2022/12/26 14:10:04;;;;;;;13.48;1.48;;;6.90;84.70;;;;;;5105992;28;20443;-90
2022/12/26 14:12:48;;;;;;;14.43;1.58;;;6.90;83.50;;;;;;5087213;28;20457;-86
2022/12/26 14:15:28;;;;;;;13.67;1.23;;;6.80;83.70;;;;;;5086007;28;20859;-87
2022/12/26 14:18:18;;;;;;;12.10;1.20;;;6.80;85.00;;;;;;5087708;28;20907;-87
2022/12/26 14:21:15;;;;;;;13.32;1.52;;;6.80;84.80;;;;;;5086149;28;20400;-86
2022/12/26 14:23:59;;;;;;;11.95;1.50;;;6.80;86.10;;;;;;5086051;28;20447;-87
2022/12/26 14:26:40;;;;;;;11.45;1.10;;;6.70;85.00;;;;;;5104490;28;20435;-87
2022/12/26 14:29:14;;;;;;;13.25;1.58;;;6.70;86.10;;;;;;5103302;28;20404;-87
2022/12/26 14:31:46;;;;;;;11.30;1.38;;;6.70;86.20;;;;;;5104115;28;20778;-87
2022/12/26 14:34:32;;;;;;;10.60;1.10;;;6.70;85.70;;;;;;5087121;28;20408;-86
2022/12/26 14:37:08;;;;;;;11.93;1.58;;;6.60;84.90;;;;;;5085297;28;20423;-87
2022/12/26 14:39:41;;;;;;;11.55;1.40;;;6.60;84.10;;;;;;5087586;28;20856;-87
2022/12/26 14:44:56;;;;;;;11.57;1.30;;;6.40;85.80;;;;;;5103339;28;20774;-86
2022/12/26 14:47:45;;;;;;;13.93;1.08;;;6.40;85.80;;;;;;5086685;28;20416;-86
2022/12/26 14:50:44;;;;;;;11.82;1.45;;;6.30;85.70;;;;;;5084945;28;20440;-87
2022/12/26 14:53:19;;;;;;;13.43;1.10;;;6.30;86.80;;;;;;5086640;28;20457;-86
2022/12/26 14:55:48;;;;;;;13.68;1.73;;;6.20;85.90;;;;;;5087660;28;20415;-88
2022/12/26 14:58:23;;;;;;;11.33;1.07;;;6.20;86.70;;;;;;5086788;28;20829;-89
2022/12/26 15:00:49;;;;;;;10.30;1.05;;;6.20;86.30;;;;;;5094433;28;20468;-89
2022/12/26 15:03:43;;;;;;;11.02;1.30;;;6.10;87.40;;;;;;5085861;28;21166;-89
2022/12/26 15:06:18;;;;;;;13.40;1.40;;;6.00;86.50;;;;;;5114285;28;20411;-88
2022/12/26 15:08:56;;;;;;;13.57;1.48;;;6.00;86.90;;;;;;5107160;28;20403;-89
2022/12/26 15:11:43;;;;;;;11.77;1.40;;;5.90;87.20;;;;;;5092265;28;20452;-89
2022/12/26 15:14:26;;;;;;;12.23;1.42;;;5.90;87.90;;;;;;5120200;28;20974;-88
2022/12/26 15:16:59;;;;;;;10.90;1.33;;;5.80;87.80;;;;;;5087209;28;20440;-87
2022/12/26 15:19:40;;;;;;;14.05;1.23;;;5.80;87.90;;;;;;5108341;28;20401;-86